Time;durP1;ratioP1;P1;durP2;ratioP2;P2;SDS_P1;SDS_P2;PMS_P1;PMS_P2;Temp;Humidity;BMP_temperature;BMP_pressure;BME280_temperature;BME280_humidity;BME280_pressure;Samples;Min_cycle;Max_cycle;Signal;HPM_P1;HPM_P2
2023/06/06 00:01:17;;;;;;;;;;;;;;;23.50;36.75;101129.91;5052379;28;20364;-55
2023/06/06 00:03:44;;;;;;;;;;;;;;;23.62;37.05;101126.97;5053154;28;20007;-49
2023/06/06 00:06:10;;;;;;;;;;;;;;;23.63;37.22;101128.63;5053181;28;19913;-55
2023/06/06 00:08:36;;;;;;;;;;;;;;;23.74;37.04;101130.34;5055565;28;20409;-54
2023/06/06 00:11:01;;;;;;;;;;;;;;;23.74;36.40;101126.78;5053078;28;19919;-50
2023/06/06 00:13:27;;;;;;;;;;;;;;;23.58;37.40;101129.41;5052680;28;19920;-55
2023/06/06 00:15:53;;;;;;;;;;;;;;;23.57;37.07;101127.78;5052888;28;19936;-55
2023/06/06 00:18:19;;;;;;;;;;;;;;;23.39;37.42;101131.75;5052625;28;19966;-53
2023/06/06 00:20:45;;;;;;;;;;;;;;;23.33;38.03;101137.47;5053064;28;19916;-54
2023/06/06 00:23:10;;;;;;;;;;;;;;;23.40;38.01;101132.56;5034789;28;19913;-55
2023/06/06 00:25:36;;;;;;;;;;;;;;;23.35;38.13;101129.81;5052542;28;19924;-54
2023/06/06 00:28:01;;;;;;;;;;;;;;;23.38;37.24;101123.78;5053010;28;19913;-55
2023/06/06 00:30:26;;;;;;;;;;;;;;;23.53;37.38;101123.91;5052813;28;20007;-52
2023/06/06 00:32:52;;;;;;;;;;;;;;;23.59;37.12;101124.78;5052686;28;20504;-52
2023/06/06 00:35:17;;;;;;;;;;;;;;;23.65;37.28;101118.22;5034433;28;19943;-55
2023/06/06 00:37:42;;;;;;;;;;;;;;;23.80;36.76;101124.91;5052507;28;19950;-54
2023/06/06 00:40:09;;;;;;;;;;;;;;;23.74;36.92;101127.59;5052526;28;19913;-56
2023/06/06 00:42:35;;;;;;;;;;;;;;;23.73;37.28;101119.63;5052587;28;19920;-54
2023/06/06 00:45:00;;;;;;;;;;;;;;;23.69;37.55;101124.00;5052587;28;19917;-50
2023/06/06 00:47:26;;;;;;;;;;;;;;;23.76;37.24;101121.84;5052313;28;20389;-51
2023/06/06 00:49:52;;;;;;;;;;;;;;;23.75;37.18;101121.03;5052546;28;19963;-52
2023/06/06 00:52:19;;;;;;;;;;;;;;;23.65;37.04;101122.88;5052573;28;19919;-54
2023/06/06 00:54:45;;;;;;;;;;;;;;;23.66;37.26;101117.16;5052521;28;19913;-52
2023/06/06 00:57:11;;;;;;;;;;;;;;;23.75;36.92;101123.78;5052526;28;19936;-55
2023/06/06 00:59:37;;;;;;;;;;;;;;;23.77;36.59;101121.59;5052137;28;19947;-55
2023/06/06 01:02:04;;;;;;;;;;;;;;;23.70;37.53;101117.41;5051851;28;19963;-54
2023/06/06 01:04:29;;;;;;;;;;;;;;;23.71;37.09;101113.59;5034148;28;20007;-56
2023/06/06 01:06:55;;;;;;;;;;;;;;;23.58;36.97;101114.88;5056616;28;20000;-54
2023/06/06 01:09:20;;;;;;;;;;;;;;;23.60;36.78;101107.22;5067606;28;20269;-55
2023/06/06 01:12:03;;;;;;;;;;;;;;;23.58;37.63;101114.88;5079101;28;19912;-51
2023/06/06 01:14:37;;;;;;;;;;;;;;;23.52;37.58;101113.22;5079085;28;20013;-55
2023/06/06 01:17:04;;;;;;;;;;;;;;;23.62;37.43;101110.50;5079143;28;20016;-51
2023/06/06 01:19:32;;;;;;;;;;;;;;;23.60;37.55;101104.47;5078875;28;20372;-56
2023/06/06 01:21:57;;;;;;;;;;;;;;;23.49;37.54;101111.81;5078817;28;19912;-54
2023/06/06 01:24:24;;;;;;;;;;;;;;;23.37;37.77;101112.00;5078636;28;19935;-53
2023/06/06 01:26:50;;;;;;;;;;;;;;;23.40;38.05;101107.91;5078687;28;19912;-53
2023/06/06 01:29:15;;;;;;;;;;;;;;;23.44;37.85;101108.19;5078914;28;19919;-51
2023/06/06 01:31:43;;;;;;;;;;;;;;;23.52;37.67;101108.53;5074894;28;19970;-56
2023/06/06 01:34:19;;;;;;;;;;;;;;;23.43;37.59;101114.78;5058817;28;19967;-53
2023/06/06 01:36:50;;;;;;;;;;;;;;;23.41;37.87;101120.53;5058630;28;19962;-52
2023/06/06 01:39:18;;;;;;;;;;;;;;;23.52;37.37;101113.22;5058545;28;19919;-49
2023/06/06 01:41:45;;;;;;;;;;;;;;;23.53;36.97;101117.59;5057220;28;19927;-53
2023/06/06 01:44:11;;;;;;;;;;;;;;;23.55;36.97;101116.25;5058141;28;19962;-56
2023/06/06 01:46:37;;;;;;;;;;;;;;;23.48;37.28;101115.66;5058113;28;19913;-53
2023/06/06 01:49:02;;;;;;;;;;;;;;;23.30;37.65;101116.88;5058387;28;19913;-56
2023/06/06 01:51:27;;;;;;;;;;;;;;;23.43;37.48;101115.63;5058278;28;19913;-51
2023/06/06 01:53:57;;;;;;;;;;;;;;;23.48;37.11;101118.41;5058488;28;19924;-51
2023/06/06 01:56:23;;;;;;;;;;;;;;;23.53;36.79;101115.69;5058766;28;19948;-51
2023/06/06 01:58:48;;;;;;;;;;;;;;;23.58;36.42;101115.69;5056986;28;19920;-52
2023/06/06 02:01:14;;;;;;;;;;;;;;;23.59;36.49;101113.81;5057378;28;20380;-56
2023/06/06 02:03:39;;;;;;;;;;;;;;;23.38;37.33;101116.41;5058413;28;19947;-53
2023/06/06 02:06:04;;;;;;;;;;;;;;;23.32;36.88;101114.72;5058330;28;20222;-51
2023/06/06 02:08:30;;;;;;;;;;;;;;;23.31;37.18;101118.56;5059826;28;19919;-53
2023/06/06 02:10:55;;;;;;;;;;;;;;;23.40;36.79;101118.88;5078216;28;20003;-56
2023/06/06 02:13:21;;;;;;;;;;;;;;;23.51;36.30;101126.09;5078236;28;19920;-49
2023/06/06 02:15:46;;;;;;;;;;;;;;;23.52;36.25;101126.91;5078080;28;19947;-51
2023/06/06 02:18:12;;;;;;;;;;;;;;;23.47;36.44;101115.91;5075576;28;19913;-50
2023/06/06 02:20:38;;;;;;;;;;;;;;;23.24;37.48;101120.69;5074889;28;20387;-53
2023/06/06 02:23:03;;;;;;;;;;;;;;;23.29;36.68;101126.22;5056882;28;19917;-51
2023/06/06 02:25:28;;;;;;;;;;;;;;;23.37;36.25;101130.38;5075291;28;19916;-54
2023/06/06 02:27:55;;;;;;;;;;;;;;;23.32;36.65;101133.91;5071668;28;19940;-52
2023/06/06 02:30:22;;;;;;;;;;;;;;;23.27;35.80;101128.41;5055208;28;19917;-52
2023/06/06 02:32:50;;;;;;;;;;;;;;;23.35;36.28;101125.16;5055171;28;20046;-49
2023/06/06 02:35:18;;;;;;;;;;;;;;;23.29;36.31;101126.22;5055215;28;20274;-54
2023/06/06 02:37:43;;;;;;;;;;;;;;;23.21;36.19;101131.34;5054918;28;20037;-50
2023/06/06 02:40:10;;;;;;;;;;;;;;;23.14;36.42;101129.66;5055086;28;20389;-54
2023/06/06 02:42:38;;;;;;;;;;;;;;;23.03;36.66;101129.78;5054896;28;19944;-53
2023/06/06 02:45:04;;;;;;;;;;;;;;;22.95;36.21;101137.38;5054890;28;19921;-49
2023/06/06 02:47:29;;;;;;;;;;;;;;;23.04;35.74;101131.50;5054753;28;20359;-53
2023/06/06 02:49:55;;;;;;;;;;;;;;;22.90;36.87;101128.31;5053228;28;19917;-53
2023/06/06 02:52:21;;;;;;;;;;;;;;;22.81;36.30;101130.72;5054684;28;19920;-52
2023/06/06 02:54:48;;;;;;;;;;;;;;;22.80;36.58;101131.78;5054680;28;19982;-50
2023/06/06 02:57:13;;;;;;;;;;;;;;;22.72;36.55;101135.81;5054392;28;19913;-52
2023/06/06 02:59:38;;;;;;;;;;;;;;;22.64;36.63;101130.81;5054106;28;19920;-51
2023/06/06 03:02:04;;;;;;;;;;;;;;;22.64;36.70;101135.44;5053737;28;20566;-53
2023/06/06 03:04:29;;;;;;;;;;;;;;;22.61;36.88;101136.81;5054328;28;19933;-52
2023/06/06 03:06:56;;;;;;;;;;;;;;;22.50;37.53;101133.13;5054593;28;20277;-56
2023/06/06 03:09:22;;;;;;;;;;;;;;;22.53;37.71;101131.75;5062820;28;20353;-52
2023/06/06 03:11:49;;;;;;;;;;;;;;;22.40;37.92;101141.22;5074312;28;19913;-50
2023/06/06 03:14:15;;;;;;;;;;;;;;;22.47;37.37;101144.56;5074158;28;20337;-54
2023/06/06 03:16:41;;;;;;;;;;;;;;;22.46;37.41;101140.19;5074393;28;20376;-52
2023/06/06 03:19:07;;;;;;;;;;;;;;;22.44;37.27;101147.84;5074055;28;19913;-53
2023/06/06 03:21:33;;;;;;;;;;;;;;;22.45;37.41;101149.47;5073848;28;19972;-56
2023/06/06 03:23:59;;;;;;;;;;;;;;;22.48;37.09;101143.50;5071418;28;20379;-54
2023/06/06 03:26:26;;;;;;;;;;;;;;;22.47;37.16;101155.53;5053975;28;20059;-51
2023/06/06 03:28:51;;;;;;;;;;;;;;;22.38;37.27;101165.25;5053396;28;19966;-55
2023/06/06 03:31:20;;;;;;;;;;;;;;;22.29;37.51;101166.78;5051960;28;19995;-55
2023/06/06 03:33:45;;;;;;;;;;;;;;;22.32;37.61;101161.63;5053261;28;19919;-53
2023/06/06 03:36:10;;;;;;;;;;;;;;;22.32;37.71;101169.84;5053720;28;19961;-52
2023/06/06 03:38:35;;;;;;;;;;;;;;;22.30;37.61;101173.94;5053577;28;20266;-50
2023/06/06 03:41:02;;;;;;;;;;;;;;;22.38;37.60;101165.25;5053715;28;19912;-55
2023/06/06 03:43:28;;;;;;;;;;;;;;;22.44;37.24;101164.25;5053240;28;20456;-49
2023/06/06 03:45:53;;;;;;;;;;;;;;;22.24;37.18;101137.44;5053373;28;20008;-55
2023/06/06 03:48:18;;;;;;;;;;;;;;;22.42;36.64;101163.69;5053227;28;19991;-51
2023/06/06 03:50:43;;;;;;;;;;;;;;;22.35;37.19;101168.53;5053304;28;20281;-52
2023/06/06 03:53:09;;;;;;;;;;;;;;;22.30;37.10;101173.94;5053256;28;20000;-51
2023/06/06 03:55:34;;;;;;;;;;;;;;;22.34;36.67;101177.81;5053205;28;19967;-52
2023/06/06 03:58:00;;;;;;;;;;;;;;;22.39;36.85;101175.97;5052915;28;20424;-50
2023/06/06 04:00:25;;;;;;;;;;;;;;;22.38;37.02;101176.22;5053069;28;19916;-51
2023/06/06 04:02:51;;;;;;;;;;;;;;;22.41;36.59;101173.78;5052390;28;19913;-51
2023/06/06 04:05:17;;;;;;;;;;;;;;;22.50;36.32;101178.84;5052898;28;19923;-55
2023/06/06 04:07:42;;;;;;;;;;;;;;;22.48;36.60;101181.00;5053229;28;19917;-52
2023/06/06 04:10:08;;;;;;;;;;;;;;;22.45;36.30;101176.84;5068029;28;20450;-48
2023/06/06 04:12:33;;;;;;;;;;;;;;;22.46;36.02;101180.44;5073157;28;19919;-53
2023/06/06 04:14:59;;;;;;;;;;;;;;;22.41;36.21;101181.19;5073088;28;19935;-53
2023/06/06 04:17:25;;;;;;;;;;;;;;;22.41;35.91;101176.53;5072845;28;19916;-54
2023/06/06 04:19:51;;;;;;;;;;;;;;;22.35;35.75;101187.69;5072947;28;19934;-53
2023/06/06 04:22:17;;;;;;;;;;;;;;;22.36;35.19;101183.84;5053307;28;19932;-50
2023/06/06 04:24:42;;;;;;;;;;;;;;;22.39;35.22;101188.84;5052817;28;19920;-54
2023/06/06 04:27:08;;;;;;;;;;;;;;;22.40;35.00;101183.09;5052750;28;19944;-55
2023/06/06 04:29:36;;;;;;;;;;;;;;;22.40;34.59;101182.28;5051680;28;19921;-52
2023/06/06 04:32:03;;;;;;;;;;;;;;;22.44;34.47;101179.88;5052596;28;19967;-52
2023/06/06 04:34:31;;;;;;;;;;;;;;;22.43;34.13;101187.22;5052643;28;19919;-55
2023/06/06 04:37:03;;;;;;;;;;;;;;;22.38;34.13;101178.94;5052690;28;19913;-54
2023/06/06 04:39:28;;;;;;;;;;;;;;;22.41;34.29;101186.66;5051257;28;19943;-54
2023/06/06 04:41:56;;;;;;;;;;;;;;;22.44;33.72;101190.81;5052412;28;20334;-55
2023/06/06 04:44:22;;;;;;;;;;;;;;;22.46;33.47;101183.19;5052487;28;19958;-54
2023/06/06 04:46:47;;;;;;;;;;;;;;;22.51;33.07;101189.53;5052623;28;19913;-52
2023/06/06 04:49:13;;;;;;;;;;;;;;;22.50;33.07;101189.78;5052489;28;19916;-51
2023/06/06 04:51:40;;;;;;;;;;;;;;;22.52;32.90;101191.16;5052205;28;20308;-54
2023/06/06 04:54:06;;;;;;;;;;;;;;;22.54;32.54;101191.75;5052262;28;19936;-52
2023/06/06 04:56:32;;;;;;;;;;;;;;;22.57;32.42;101180.28;5034148;28;19917;-52
2023/06/06 04:58:57;;;;;;;;;;;;;;;22.65;31.69;101180.91;5052046;28;19921;-50
2023/06/06 05:01:23;;;;;;;;;;;;;;;22.63;31.74;101192.13;5051479;28;19916;-54
2023/06/06 05:03:49;;;;;;;;;;;;;;;22.66;31.42;101188.03;5052065;28;19916;-55
2023/06/06 05:06:14;;;;;;;;;;;;;;;22.66;31.18;101188.88;5052151;28;19967;-54
2023/06/06 05:08:41;;;;;;;;;;;;;;;22.68;31.00;101188.59;5054996;28;19913;-54
2023/06/06 05:11:07;;;;;;;;;;;;;;;22.74;31.03;101182.94;5054497;28;19943;-52
2023/06/06 05:13:32;;;;;;;;;;;;;;;22.70;30.90;101183.72;5072318;28;19913;-53
2023/06/06 05:15:58;;;;;;;;;;;;;;;22.79;30.45;101183.00;5054582;28;19930;-54
2023/06/06 05:18:24;;;;;;;;;;;;;;;22.83;30.16;101191.53;5053978;28;19964;-53
2023/06/06 05:20:49;;;;;;;;;;;;;;;22.90;29.73;101192.16;5052439;28;19912;-54
2023/06/06 05:23:15;;;;;;;;;;;;;;;22.96;29.19;101180.16;5052149;28;19913;-52
2023/06/06 05:25:40;;;;;;;;;;;;;;;22.98;29.42;101193.59;5052163;28;19920;-54
2023/06/06 05:28:11;;;;;;;;;;;;;;;22.98;29.11;101190.84;5051834;28;19919;-54
2023/06/06 05:30:36;;;;;;;;;;;;;;;22.97;29.16;101194.66;5052043;28;19913;-55
2023/06/06 05:33:02;;;;;;;;;;;;;;;23.04;29.07;101189.03;5052255;28;19920;-51
2023/06/06 05:35:27;;;;;;;;;;;;;;;23.08;28.27;101199.19;5051939;28;20258;-54
2023/06/06 05:37:53;;;;;;;;;;;;;;;23.09;28.09;101186.34;5050850;28;20106;-52
2023/06/06 05:40:19;;;;;;;;;;;;;;;23.14;27.76;101192.69;5051935;28;20008;-50
2023/06/06 05:42:44;;;;;;;;;;;;;;;23.13;28.20;101193.75;5051984;28;19913;-49
2023/06/06 05:45:09;;;;;;;;;;;;;;;23.18;27.75;101198.47;5051939;28;20029;-54
2023/06/06 05:47:35;;;;;;;;;;;;;;;23.21;27.83;101197.13;5051816;28;19920;-54
2023/06/06 05:50:00;;;;;;;;;;;;;;;23.25;27.77;101200.97;5051798;28;19913;-55
2023/06/06 05:52:26;;;;;;;;;;;;;;;23.25;27.64;101206.47;5051964;28;19920;-50
2023/06/06 05:54:57;;;;;;;;;;;;;;;23.22;27.62;101202.34;5055702;28;20047;-51
2023/06/06 05:57:22;;;;;;;;;;;;;;;23.27;27.83;101216.09;5055706;28;19913;-50
2023/06/06 05:59:48;;;;;;;;;;;;;;;23.33;27.87;101204.09;5055853;28;19921;-51
2023/06/06 06:02:14;;;;;;;;;;;;;;;23.39;27.62;101213.19;5056642;28;19999;-51
2023/06/06 06:04:41;;;;;;;;;;;;;;;23.50;27.58;101209.44;5057027;28;20012;-53
2023/06/06 06:07:06;;;;;;;;;;;;;;;23.45;27.21;101211.31;5055284;28;19948;-53
2023/06/06 06:09:32;;;;;;;;;;;;;;;23.35;27.25;101212.88;5065530;28;19913;-54
2023/06/06 06:11:57;;;;;;;;;;;;;;;23.41;27.60;101211.00;5075365;28;19916;-55
2023/06/06 06:14:22;;;;;;;;;;;;;;;23.50;26.81;101209.44;5054136;28;20008;-56
2023/06/06 06:16:48;;;;;;;;;;;;;;;23.55;27.04;101209.47;5055436;28;19912;-54
2023/06/06 06:19:13;;;;;;;;;;;;;;;23.57;26.98;101212.78;5055262;28;19967;-54
2023/06/06 06:21:38;;;;;;;;;;;;;;;23.57;27.00;101211.97;5055224;28;20341;-54
2023/06/06 06:24:04;;;;;;;;;;;;;;;23.68;26.71;101204.63;5055171;28;20011;-52
2023/06/06 06:26:29;;;;;;;;;;;;;;;23.76;26.83;101213.19;5055367;28;19919;-51
2023/06/06 06:28:55;;;;;;;;;;;;;;;23.69;26.85;101211.75;5055281;28;19916;-52
2023/06/06 06:31:20;;;;;;;;;;;;;;;23.69;26.68;101212.59;5054958;28;19986;-57
2023/06/06 06:33:46;;;;;;;;;;;;;;;23.68;26.90;101213.69;5054876;28;19917;-56
2023/06/06 06:36:11;;;;;;;;;;;;;;;23.81;26.61;101209.69;5054745;28;19913;-55
2023/06/06 06:38:36;;;;;;;;;;;;;;;23.84;26.32;101213.81;5055144;28;20334;-52
2023/06/06 06:41:03;;;;;;;;;;;;;;;23.81;26.46;101217.94;5055408;28;20344;-55
2023/06/06 06:43:28;;;;;;;;;;;;;;;23.85;26.63;101212.75;5054954;28;19913;-56
2023/06/06 06:45:54;;;;;;;;;;;;;;;23.74;26.55;101222.78;5055045;28;20280;-52
2023/06/06 06:48:19;;;;;;;;;;;;;;;23.84;26.30;101213.81;5054977;28;20385;-53
2023/06/06 06:50:45;;;;;;;;;;;;;;;23.90;26.59;101216.34;5054889;28;20367;-50
2023/06/06 06:53:12;;;;;;;;;;;;;;;24.00;26.08;101212.81;5054551;28;20288;-54
2023/06/06 06:55:38;;;;;;;;;;;;;;;24.14;26.16;101221.41;5054437;28;19920;-54
2023/06/06 06:58:05;;;;;;;;;;;;;;;24.12;26.35;101221.66;5054386;28;19921;-55
2023/06/06 07:00:31;;;;;;;;;;;;;;;24.12;26.22;101218.91;5054631;28;19913;-55
2023/06/06 07:02:57;;;;;;;;;;;;;;;24.15;25.98;101225.81;5053950;28;20403;-55
2023/06/06 07:05:23;;;;;;;;;;;;;;;24.26;25.95;101219.28;5053849;28;19927;-52
2023/06/06 07:07:53;;;;;;;;;;;;;;;24.24;25.85;101217.91;5054320;28;20007;-52
2023/06/06 07:10:18;;;;;;;;;;;;;;;24.35;25.99;101214.94;5057513;28;19970;-54
2023/06/06 07:12:48;;;;;;;;;;;;;;;24.38;25.95;101223.72;5054569;28;19913;-56
2023/06/06 07:15:13;;;;;;;;;;;;;;;24.27;25.42;101222.84;5054163;28;19917;-52
2023/06/06 07:17:38;;;;;;;;;;;;;;;24.45;25.83;101218.81;5054559;28;19913;-54
2023/06/06 07:20:05;;;;;;;;;;;;;;;24.47;25.59;101228.44;5054134;28;20265;-55
2023/06/06 07:22:35;;;;;;;;;;;;;;;24.54;25.39;101229.03;5054001;28;20014;-52
2023/06/06 07:25:01;;;;;;;;;;;;;;;24.61;25.73;101222.47;5053786;28;19924;-54
2023/06/06 07:27:27;;;;;;;;;;;;;;;24.51;25.86;101224.03;5054280;28;19913;-52
2023/06/06 07:29:52;;;;;;;;;;;;;;;24.61;25.54;101230.69;5053824;28;20358;-56
2023/06/06 07:32:18;;;;;;;;;;;;;;;24.65;25.29;101229.09;5054116;28;19959;-52
2023/06/06 07:34:43;;;;;;;;;;;;;;;24.69;25.37;101222.78;5053823;28;20015;-54
2023/06/06 07:37:08;;;;;;;;;;;;;;;24.72;25.41;101229.63;5053892;28;19913;-55
2023/06/06 07:39:34;;;;;;;;;;;;;;;24.80;25.07;101225.56;5053631;28;19959;-57
2023/06/06 07:41:59;;;;;;;;;;;;;;;24.81;25.36;101228.00;5036162;28;19939;-54
2023/06/06 07:44:24;;;;;;;;;;;;;;;24.86;25.16;101221.72;5053742;28;20301;-56
2023/06/06 07:46:49;;;;;;;;;;;;;;;24.91;25.34;101227.25;5035729;28;19966;-53
2023/06/06 07:49:15;;;;;;;;;;;;;;;24.88;25.12;101217.59;5053389;28;19983;-53
2023/06/06 07:51:40;;;;;;;;;;;;;;;24.96;24.91;101220.91;5053705;28;19912;-57
2023/06/06 07:54:06;;;;;;;;;;;;;;;25.01;25.27;101227.25;5053730;28;19913;-52
2023/06/06 07:56:37;;;;;;;;;;;;;;;25.05;25.27;101225.59;5053486;28;20787;-55
2023/06/06 07:59:03;;;;;;;;;;;;;;;25.19;24.84;101222.34;5053065;28;20342;-54
2023/06/06 08:01:28;;;;;;;;;;;;;;;25.18;25.05;101213.25;5052625;28;20003;-53
2023/06/06 08:03:55;;;;;;;;;;;;;;;25.26;24.60;101212.75;5052836;28;20270;-55
2023/06/06 08:06:24;;;;;;;;;;;;;;;25.34;24.91;101213.31;5053196;28;19925;-52
2023/06/06 08:08:51;;;;;;;;;;;;;;;25.33;24.28;101211.66;5057322;28;19913;-56
2023/06/06 08:11:17;;;;;;;;;;;;;;;25.41;24.35;101211.13;5072900;28;19913;-55
2023/06/06 08:13:42;;;;;;;;;;;;;;;25.45;24.46;101214.97;5072873;28;20049;-54
2023/06/06 08:16:08;;;;;;;;;;;;;;;25.56;24.32;101211.09;5072314;28;20003;-52
2023/06/06 08:18:33;;;;;;;;;;;;;;;25.59;24.14;101215.22;5073032;28;19916;-55
2023/06/06 08:20:58;;;;;;;;;;;;;;;25.67;24.35;101212.75;5072834;28;20007;-56
2023/06/06 08:23:24;;;;;;;;;;;;;;;25.61;23.83;101202.00;5072569;28;19920;-55
2023/06/06 08:25:55;;;;;;;;;;;;;;;25.78;24.05;101199.78;5072462;28;19963;-52
2023/06/06 08:28:26;;;;;;;;;;;;;;;25.84;23.64;101200.59;5072785;28;19917;-54
2023/06/06 08:30:52;;;;;;;;;;;;;;;25.89;23.54;101200.56;5072912;28;20309;-52
2023/06/06 08:33:18;;;;;;;;;;;;;;;25.95;23.89;101199.50;5072333;28;20009;-56
2023/06/06 08:35:44;;;;;;;;;;;;;;;26.03;23.85;101196.16;5065590;28;19917;-54
2023/06/06 08:38:09;;;;;;;;;;;;;;;26.07;23.46;101201.94;5052810;28;19928;-54
2023/06/06 08:40:35;;;;;;;;;;;;;;;26.21;23.54;101203.00;5052261;28;20266;-59
2023/06/06 08:43:01;;;;;;;;;;;;;;;26.34;23.58;101203.53;5052401;28;19997;-50
2023/06/06 08:45:26;;;;;;;;;;;;;;;26.44;23.17;101207.03;5052330;28;19959;-55
2023/06/06 08:47:53;;;;;;;;;;;;;;;26.55;22.87;101207.00;5034433;28;19913;-53
2023/06/06 08:50:20;;;;;;;;;;;;;;;26.61;22.86;101200.38;5052189;28;19913;-56
2023/06/06 08:52:46;;;;;;;;;;;;;;;26.66;22.96;101203.13;5052258;28;20296;-52
2023/06/06 08:55:12;;;;;;;;;;;;;;;26.77;23.31;101201.94;5052205;28;20288;-55
2023/06/06 08:57:41;;;;;;;;;;;;;;;26.80;23.17;101206.91;5051839;28;19923;-56
2023/06/06 09:00:11;;;;;;;;;;;;;;;26.77;22.79;101204.69;5051896;28;20381;-52
2023/06/06 09:02:43;;;;;;;;;;;;;;;26.87;23.35;101212.06;5051408;28;19923;-53
2023/06/06 09:05:10;;;;;;;;;;;;;;;27.08;22.85;101209.19;5052265;28;19917;-56
2023/06/06 09:07:37;;;;;;;;;;;;;;;27.12;22.53;101208.34;5052306;28;20380;-56
2023/06/06 09:10:02;;;;;;;;;;;;;;;27.22;22.37;101202.72;5066324;28;19952;-56
2023/06/06 09:12:28;;;;;;;;;;;;;;;27.34;22.67;101198.81;5072123;28;19951;-56
2023/06/06 09:14:53;;;;;;;;;;;;;;;27.40;22.35;101200.44;5072001;28;19970;-54
2023/06/06 09:17:18;;;;;;;;;;;;;;;27.53;22.11;101198.94;5072009;28;19916;-50
2023/06/06 09:19:45;;;;;;;;;;;;;;;27.53;22.14;101199.75;5037525;28;19912;-54
2023/06/06 09:22:10;;;;;;;;;;;;;;;27.58;22.18;101201.63;5072020;28;19912;-55
2023/06/06 09:24:41;;;;;;;;;;;;;;;27.55;22.30;101207.75;5071906;28;20365;-55
2023/06/06 09:27:06;;;;;;;;;;;;;;;27.73;21.82;101200.66;5073347;28;19948;-55
2023/06/06 09:29:37;;;;;;;;;;;;;;;27.79;22.21;101194.00;5076348;28;19963;-54
2023/06/06 09:32:05;;;;;;;;;;;;;;;27.88;21.82;101191.38;5068559;28;19913;-56
2023/06/06 09:34:31;;;;;;;;;;;;;;;27.92;21.52;101190.56;5055786;28;19912;-54
2023/06/06 09:36:59;;;;;;;;;;;;;;;28.05;21.86;101196.50;5056082;28;20017;-52
2023/06/06 09:39:25;;;;;;;;;;;;;;;28.05;21.65;101183.50;5054963;28;19913;-54
2023/06/06 09:41:50;;;;;;;;;;;;;;;28.26;21.63;101194.31;5055056;28;20496;-55
2023/06/06 09:44:22;;;;;;;;;;;;;;;28.37;21.88;101195.81;5055043;28;19917;-57
2023/06/06 09:47:08;;;;;;;;;;;;;;;28.50;21.38;101197.84;5055530;28;20472;-51
2023/06/06 09:49:33;;;;;;;;;;;;;;;28.72;21.27;101191.78;5054653;28;19917;-54
2023/06/06 09:51:58;;;;;;;;;;;;;;;28.85;21.12;101206.00;5055307;28;20309;-53
2023/06/06 09:54:24;;;;;;;;;;;;;;;28.79;21.01;101202.47;5055521;28;19913;-57
2023/06/06 09:56:50;;;;;;;;;;;;;;;28.95;20.88;101198.34;5037702;28;19923;-54
2023/06/06 09:59:16;;;;;;;;;;;;;;;29.02;20.77;101200.75;5055088;28;20369;-56
2023/06/06 10:01:43;;;;;;;;;;;;;;;29.15;21.00;101199.19;5054388;28;19924;-56
2023/06/06 10:04:08;;;;;;;;;;;;;;;29.30;20.92;101203.66;5055670;28;19967;-53
2023/06/06 10:06:34;;;;;;;;;;;;;;;29.40;20.41;101194.34;5055448;28;19948;-56
2023/06/06 10:09:00;;;;;;;;;;;;;;;29.57;20.19;101193.78;5060766;28;19923;-56
2023/06/06 10:11:27;;;;;;;;;;;;;;;29.67;20.07;101193.59;5075381;28;19999;-56
2023/06/06 10:13:54;;;;;;;;;;;;;;;29.86;20.28;101196.31;5075210;28;19958;-53
2023/06/06 10:16:19;;;;;;;;;;;;;;;30.04;20.14;101191.81;5075177;28;19912;-54
2023/06/06 10:18:46;;;;;;;;;;;;;;;30.18;19.18;101195.41;5075055;28;19926;-56
2023/06/06 10:21:13;;;;;;;;;;;;;;;30.23;19.23;101198.06;5074661;28;20014;-56
2023/06/06 10:23:39;;;;;;;;;;;;;;;30.46;19.14;101189.84;5074875;28;19912;-55
2023/06/06 10:26:05;;;;;;;;;;;;;;;30.65;19.29;101195.28;5075282;28;19913;-55
2023/06/06 10:28:37;;;;;;;;;;;;;;;30.85;19.14;101192.03;5065866;28;19912;-57
2023/06/06 10:31:12;;;;;;;;;;;;;;;30.98;19.03;101179.28;5055226;28;19917;-54
2023/06/06 10:33:43;;;;;;;;;;;;;;;31.22;18.47;101184.50;5054907;28;19940;-56
2023/06/06 10:36:10;;;;;;;;;;;;;;;31.35;18.28;101179.19;5055244;28;20059;-57
2023/06/06 10:38:37;;;;;;;;;;;;;;;31.64;18.39;101174.00;5054191;28;19920;-57
2023/06/06 10:41:13;;;;;;;;;;;;;;;31.82;17.91;101176.84;5054434;28;19955;-57
2023/06/06 10:43:41;;;;;;;;;;;;;;;31.91;17.51;101176.88;5054606;28;19919;-55
2023/06/06 10:46:06;;;;;;;;;;;;;;;32.14;17.87;101172.91;5054683;28;20059;-57
2023/06/06 10:48:39;;;;;;;;;;;;;;;32.35;17.57;101166.72;5054788;28;19995;-57
2023/06/06 10:51:04;;;;;;;;;;;;;;;32.51;17.76;101164.31;5054581;28;20384;-55
2023/06/06 10:53:30;;;;;;;;;;;;;;;32.78;17.08;101166.81;5054617;28;19915;-55
2023/06/06 10:55:56;;;;;;;;;;;;;;;33.01;17.53;101171.38;5054365;28;19956;-55
2023/06/06 10:58:24;;;;;;;;;;;;;;;32.85;16.57;101177.44;5054393;28;19921;-56
2023/06/06 11:00:50;;;;;;;;;;;;;;;32.77;17.11;101170.72;5053578;28;20392;-57
2023/06/06 11:03:19;;;;;;;;;;;;;;;32.90;17.67;101168.13;5054365;28;19978;-56
2023/06/06 11:06:00;;;;;;;;;;;;;;;33.13;16.80;101171.56;5036268;28;19917;-55
2023/06/06 11:08:38;;;;;;;;;;;;;;;33.02;16.96;101175.78;5055055;28;19913;-53
2023/06/06 11:11:15;;;;;;;;;;;;;;;33.03;16.66;101167.13;5074170;28;19916;-54
2023/06/06 11:13:57;;;;;;;;;;;;;;;33.19;16.33;101164.66;5074468;28;19919;-55
2023/06/06 11:16:38;;;;;;;;;;;;;;;33.39;16.50;101162.34;5073943;28;20058;-54
2023/06/06 11:19:06;;;;;;;;;;;;;;;33.51;16.13;101156.91;5074408;28;19951;-54
2023/06/06 11:21:34;;;;;;;;;;;;;;;33.73;16.09;101156.69;5074039;28;19913;-56
2023/06/06 11:24:00;;;;;;;;;;;;;;;33.83;15.87;101172.19;5070647;28;19967;-57
2023/06/06 11:26:26;;;;;;;;;;;;;;;33.94;15.66;101172.63;5053936;28;19983;-57
2023/06/06 11:28:53;;;;;;;;;;;;;;;34.02;16.04;101160.63;5053754;28;20368;-55
2023/06/06 11:31:20;;;;;;;;;;;;;;;34.52;15.97;101159.00;5054024;28;20273;-56
2023/06/06 11:33:45;;;;;;;;;;;;;;;34.78;15.75;101147.66;5036182;28;19913;-57
2023/06/06 11:36:11;;;;;;;;;;;;;;;34.97;15.42;101158.31;5053560;28;19913;-56
2023/06/06 11:38:40;;;;;;;;;;;;;;;34.90;15.38;101153.31;5053914;28;19913;-57
2023/06/06 11:41:05;;;;;;;;;;;;;;;34.99;15.34;101156.00;5053618;28;19948;-55
2023/06/06 11:43:31;;;;;;;;;;;;;;;35.08;14.85;101150.34;5053827;28;19953;-54
2023/06/06 11:46:06;;;;;;;;;;;;;;;34.92;15.12;101149.34;5053778;28;20039;-53
2023/06/06 11:48:31;;;;;;;;;;;;;;;34.80;14.49;101156.50;5053533;28;19920;-53
2023/06/06 11:50:57;;;;;;;;;;;;;;;34.98;14.64;101159.97;5052484;28;19928;-54
2023/06/06 11:53:29;;;;;;;;;;;;;;;35.11;14.67;101157.22;5053375;28;19920;-57
2023/06/06 11:55:54;;;;;;;;;;;;;;;34.97;14.93;101151.94;5053510;28;19970;-55
2023/06/06 11:58:20;;;;;;;;;;;;;;;35.14;14.71;101159.31;5053215;28;19924;-56
2023/06/06 12:00:46;;;;;;;;;;;;;;;35.23;14.51;101154.47;5052949;28;19952;-56
2023/06/06 12:03:14;;;;;;;;;;;;;;;35.28;14.95;101152.28;5052884;28;19940;-56
2023/06/06 12:05:41;;;;;;;;;;;;;;;35.35;14.83;101142.53;5033491;28;19925;-54
2023/06/06 12:08:06;;;;;;;;;;;;;;;35.67;14.74;101164.00;5033232;28;19914;-56
2023/06/06 12:10:32;;;;;;;;;;;;;;;35.87;13.98;101150.28;5053963;28;19916;-57
2023/06/06 12:12:57;;;;;;;;;;;;;;;36.24;14.59;101150.28;5073005;28;19919;-54
2023/06/06 12:15:27;;;;;;;;;;;;;;;36.39;13.32;101143.97;5073141;28;19927;-56
2023/06/06 12:17:53;;;;;;;;;;;;;;;36.50;13.84;101149.88;5073188;28;19913;-57
2023/06/06 12:20:23;;;;;;;;;;;;;;;36.56;13.40;101140.06;5069435;28;19920;-57
2023/06/06 12:22:49;;;;;;;;;;;;;;;36.89;13.21;101155.00;5053285;28;19912;-57
2023/06/06 12:25:22;;;;;;;;;;;;;;;37.40;12.72;101144.00;5035068;28;20059;-55
2023/06/06 12:27:48;;;;;;;;;;;;;;;37.67;13.53;101147.94;5053164;28;19912;-57
2023/06/06 12:30:14;;;;;;;;;;;;;;;37.73;12.78;101142.88;5052894;28;19916;-55
2023/06/06 12:32:39;;;;;;;;;;;;;;;38.06;12.69;101141.63;5052517;28;20260;-56